Home > Products > Valid Products > MTR

000
SAUS46 KSTO 252253
MTRBLU
METAR KBLU 252252Z AUTO 22003KT 10SM BKN004 OVC009 03/01 A2995 RMK
AO2 RAE12 SLP142 P0000 T00280011 $





000
SAUS46 KSTO 252239
MTRBLU
SPECI KBLU 252238Z AUTO 23005KT 9SM SCT004 BKN008 OVC049 03/01 A2995
RMK AO2 RAE12 P0000 T00280011 $





000
SAUS46 KSTO 252230
MTRBLU
SPECI KBLU 252229Z AUTO 26007KT 2SM BR FEW002 BKN018 OVC049 03/01
A2995 RMK AO2 RAE12 P0000 T00330011 $





000
SAUS46 KSTO 252223
MTRBLU
SPECI KBLU 252222Z AUTO 25004KT 4SM BR FEW004 BKN027 OVC049 03/02
A2995 RMK AO2 RAE12 P0000 T00330017 $





000
SAUS46 KSTO 252216
MTRBLU
SPECI KBLU 252215Z AUTO 27005KT 10SM SCT034 OVC049 03/01 A2995 RMK
AO2 RAE12 P0000 T00330006 $





000
SAUS46 KSTO 252153
MTRBLU
METAR KBLU 252152Z AUTO 27004KT 9SM -RA BKN029 OVC039 03/01 A2994
RMK AO2 UPB40E42 SLP137 P0014 T00330011 $





000
SAUS46 KSTO 252125
MTRBLU
SPECI KBLU 252124Z AUTO 26004KT 6SM RA BR FEW008 SCT012 OVC017 03/01
A2994 RMK AO2 P0011 T00280006 $





000
SAUS46 KSTO 252125
MTRBLU
SPECI KBLU 252124Z AUTO 26004KT 6SM RA BR FEW008 SCT012 OVC017 03/01
A2994 RMK AO2 P0011 T00280006 $





000
SAUS46 KSTO 252116
MTRBLU
SPECI KBLU 252115Z AUTO 21004KT 2SM RA BR FEW006 SCT011 OVC016 03/01
A2994 RMK AO2 P0010 T00280006 $





000
SAUS46 KSTO 252114
MTRBLU
SPECI KBLU 252113Z AUTO 21004KT 1 3/4SM RA BR FEW006 OVC014 03/01
A2994 RMK AO2 P0010 T00280006 $





000
SAUS46 KSTO 252114
MTRBLU
SPECI KBLU 252113Z AUTO 21004KT 1 3/4SM RA BR FEW006 OVC014 03/01
A2994 RMK AO2 P0010 T00280006 $





000
SAUS46 KSTO 252104
MTRBLU
SPECI KBLU 252103Z AUTO VRB04KT 1 3/4SM +RA BR BKN011 BKN017 OVC025
03/01 A2994 RMK AO2 P0004 T00280006 $





000
SAUS46 KSTO 252104
MTRBLU
SPECI KBLU 252103Z AUTO VRB04KT 1 3/4SM +RA BR BKN011 BKN017 OVC025
03/01 A2994 RMK AO2 P0004 T00280006 $





000
SAUS46 KSTO 252056
MTRBLU
SPECI KBLU 252055Z AUTO VRB05KT 2SM RA SCT011 BKN023 OVC030 04/01
A2994 RMK AO2 VIS 1V5 P0001 T00390006 $





000
SAUS46 KSTO 252053
MTRBLU
METAR KBLU 252052Z AUTO 34005KT 3SM +RA FEW011 SCT017 OVC030 04/01
A2993 RMK AO2 RAE1956B15 SLP132 P0003 60006 T00390006 53006 $





000
SAUS46 KSTO 252037
MTRBLU
SPECI KBLU 252036Z AUTO 00000KT 10SM SCT008 BKN019 OVC060 05/01
A2992 RMK AO2 RAE1956B15E31 P0000 T00500011 $





000
SAUS46 KSTO 252030
MTRBLU
SPECI KBLU 252029Z AUTO 26003KT 10SM -RA FEW004 BKN011 OVC060 04/01
A2992 RMK AO2 RAE1956B15 P0000 T00440011 $





000
SAUS46 KSTO 251958
MTRBLU
SPECI KBLU 251957Z AUTO 10SM BKN006 BKN013 OVC049 04/02 A2992 RMK
AO2 RAE56 P0000 T00440022 $





000
SAUS46 KSTO 251958
MTRBLU
SPECI KBLU 251957Z AUTO 10SM BKN006 BKN013 OVC049 04/02 A2992 RMK
AO2 RAE56 P0000 T00440022 $





000
SAUS46 KSTO 251954
MTRBLU
METAR KBLU 251952Z AUTO 00000KT 7SM -RA SCT004 BKN016 OVC047 04/03
A2992 RMK AO2 RAB03 SLP124 P0003 T00440028 $





000
SAUS46 KSTO 251954
MTRBLU
METAR KBLU 251952Z AUTO 00000KT 7SM -RA SCT004 BKN016 OVC047 04/03
A2992 RMK AO2 RAB03 SLP124 P0003 T00440028 $





000
SAUS46 KSTO 251945
MTRBLU
SPECI KBLU 251944Z AUTO VRB04KT 5SM -RA BR SCT006 BKN009 OVC025
03/02 A2992 RMK AO2 RAB03 P0003 T00330017 $





000
SAUS46 KSTO 251945
MTRBLU
SPECI KBLU 251944Z AUTO VRB04KT 5SM -RA BR SCT006 BKN009 OVC025
03/02 A2992 RMK AO2 RAB03 P0003 T00330017 $





000
SAUS46 KSTO 251936
MTRBLU
SPECI KBLU 251935Z AUTO 32003KT 6SM -RA BR SCT006 BKN014 OVC019
03/01 A2992 RMK AO2 RAB03 P0002 T00280006 $





000
SAUS46 KSTO 251936
MTRBLU
SPECI KBLU 251935Z AUTO 32003KT 6SM -RA BR SCT006 BKN014 OVC019
03/01 A2992 RMK AO2 RAB03 P0002 T00280006 $





000
SAUS46 KSTO 251926
MTRBLU
SPECI KBLU 251925Z AUTO VRB03KT 3SM -RA BR SCT005 BKN021 OVC032
03/01 A2992 RMK AO2 RAB03 P0001 T00330011 $





000
SAUS46 KSTO 251926
MTRBLU
SPECI KBLU 251925Z AUTO VRB03KT 3SM -RA BR SCT005 BKN021 OVC032
03/01 A2992 RMK AO2 RAB03 P0001 T00330011 $





000
SAUS46 KSTO 251853
MTRBLU
METAR KBLU 251852Z AUTO 23006KT 10SM BKN007 OVC015 03/02 A2992 RMK
AO2 RAB24E36 CIG 004V011 SLP128 P0000 T00330017 $





000
SAUS46 KSTO 251840
MTRBLU
SPECI KBLU 251839Z AUTO 21005KT 10SM BKN009 BKN017 03/02 A2992 RMK
AO2 RAB24E36 CIG 005V012 P0000 T00330017 $





000
SAUS46 KSTO 251816
MTRBLU
SPECI KBLU 251815Z AUTO 29004KT 10SM SCT006 BKN012 OVC050 04/02
A2992 RMK AO2 T00390017 $





000
SAUS46 KSTO 251755 COR
MTRBLU
METAR KBLU 251752Z AUTO 27003KT 10SM SCT004 BKN008 OVC013 03/02
A2991 RMK AO2 RAE27 SLP125 P0007 60017 T00330017 10033 20017 53014 $





000
SAUS46 KSTO 251755 COR
MTRBLU
METAR KBLU 251752Z AUTO 27003KT 10SM SCT004 BKN008 OVC013 03/02
A2991 RMK AO2 RAE27 SLP125 P0007 60017 T00330017 10033 20017 53014 $





000
SAUS46 KSTO 251754 COR
MTRBLU
METAR KBLU 251752Z AUTO 27003KT 10SM SCT004 BKN008 OVC013 03/02
A2991 RMK AO2 RAE27 SLP125 P0007 60017 T00330017 10033 20017 53014 $





000
SAUS46 KSTO 251746
MTRBLU
SPECI KBLU 251744Z AUTO 29003KT 10SM BKN004 OVC013 03/01 A2991 RMK
AO2 RAE27 P0007 T00330011 $





000
SAUS46 KSTO 251739
MTRBLU
SPECI KBLU 251737Z AUTO 27004KT 2 1/2SM BR BKN004 OVC016 03/02 A2991
RMK AO2 RAE27 P0007 T00330017 $





000
SAUS46 KSTO 251734
MTRBLU
SPECI KBLU 251733Z AUTO 23003KT 1SM BR OVC004 03/02 A2990 RMK AO2
RAE27 P0007 T00330022 $





000
SAUS46 KSTO 251653
MTRBLU
METAR KBLU 251652Z AUTO VRB04KT 1 3/4SM -RA BR OVC004 03/02 A2989
RMK AO2 VIS 1V5 RAB52 SLP115 P0000 T00280017 $





000
SAUS46 KSTO 251645
MTRBLU
SPECI KBLU 251644Z AUTO 26004KT 1 1/2SM BR OVC004 03/02 A2989 RMK
AO2 VIS 3/4V5 T00280017 $





000
SAUS46 KSTO 251631
MTRBLU
SPECI KBLU 251630Z AUTO 27005KT 1/2SM FG BKN003 OVC008 03/02 A2989
RMK AO2 T00280017 $





000
SAUS46 KSTO 251620
MTRBLU
SPECI KBLU 251619Z AUTO 28005KT 1SM BR BKN004 OVC008 03/01 A2988 RMK
AO2 T00280011 $





000
SAUS46 KSTO 251620
MTRBLU
SPECI KBLU 251619Z AUTO 28005KT 1SM BR BKN004 OVC008 03/01 A2988 RMK
AO2 T00280011 $





000
SAUS46 KSTO 251553
MTRBLU
METAR KBLU 251552Z AUTO 27004KT 1/4SM FG VV002 03/02 A2988 RMK AO2
UPB41E51 SLP107 P0000 T00280017 $





000
SAUS46 KSTO 251454
MTRBLU
METAR KBLU 251452Z AUTO 27004KT 1/4SM FG VV002 02/01 A2986 RMK AO2
UPE01 SLP098 P0001 60010 T00220011 53012 $





000
SAUS46 KSTO 251353
MTRBLU
METAR KBLU 251352Z AUTO 26005KT 1/4SM UP FG VV002 02/01 A2984 RMK
AO2 RAE02UPB02 SLP090 P0003 T00220011 $





000
SAUS46 KSTO 251353
MTRBLU
METAR KBLU 251352Z AUTO 26005KT 1/4SM UP FG VV002 02/01 A2984 RMK
AO2 RAE02UPB02 SLP090 P0003 T00220011 $





000
SAUS46 KSTO 251320
MTRBLU
SPECI KBLU 251319Z AUTO 24008KT 1/4SM UP FG VV002 02/01 A2984 RMK
AO2 RAE02UPB02 P0002 T00220011 $





000
SAUS46 KSTO 251320
MTRBLU
SPECI KBLU 251319Z AUTO 24008KT 1/4SM UP FG VV002 02/01 A2984 RMK
AO2 RAE02UPB02 P0002 T00220011 $





000
SAUS46 KSTO 251253
MTRBLU
METAR KBLU 251252Z AUTO 21008KT 1/2SM -RA FG VV003 02/01 A2983 RMK
AO2 RAE09B50UPB09E50 SLP083 P0006 T00220006 $





000
SAUS46 KSTO 251156 COR
MTRBLU
METAR KBLU 251152Z AUTO 22005KT 3/4SM -RA BR VV003 02/01 A2982 RMK
AO2 RAB20SNE20 SLP084 P0012 60096 70115 T00170006 10017 20006 55009
$





000
SAUS46 KSTO 251156 COR
MTRBLU
METAR KBLU 251152Z AUTO 22005KT 3/4SM -RA BR VV003 02/01 A2982 RMK
AO2 RAB20SNE20 SLP084 P0012 60096 70115 T00170006 10017 20006 55009
$





000
SAUS46 KSTO 251154 COR
MTRBLU
METAR KBLU 251152Z AUTO 22005KT 3/4SM -RA BR VV003 02/01 A2982 RMK
AO2 RAB20SNE20 SLP084 P0012 60096 70115 T00170006 10017 20006 55009
$





000
SAUS46 KSTO 251154 COR
MTRBLU
METAR KBLU 251152Z AUTO 22005KT 3/4SM -RA BR VV003 02/01 A2982 RMK
AO2 RAB20SNE20 SLP084 P0012 60096 70115 T00170006 10017 20006 55009
$





000
SAUS46 KSTO 251121
MTRBLU
SPECI KBLU 251120Z AUTO 19008KT 1/2SM RA FG VV003 01/00 A2981 RMK
AO2 RAB20SNE20 P0006 T00110000 $





000
SAUS46 KSTO 251121
MTRBLU
SPECI KBLU 251120Z AUTO 19008KT 1/2SM RA FG VV003 01/00 A2981 RMK
AO2 RAB20SNE20 P0006 T00110000 $





000
SAUS46 KSTO 251109
MTRBLU
SPECI KBLU 251108Z AUTO 18007KT 1 1/4SM -SN BR OVC004 01/M01 A2981
RMK AO2 P0004 T00111006 $





000
SAUS46 KSTO 251106
MTRBLU
SPECI KBLU 251104Z AUTO 17005KT 1 1/2SM -SN BR OVC005 01/M01 A2981
RMK AO2 P0003 T00111006 $





000
SAUS46 KSTO 251106
MTRBLU
SPECI KBLU 251104Z AUTO 17005KT 1 1/2SM -SN BR OVC005 01/M01 A2981
RMK AO2 P0003 T00111006 $





000
SAUS46 KSTO 251054
MTRBLU
METAR KBLU 251052Z AUTO 15004KT 1SM -SN BR VV005 01/M01 A2981 RMK
AO2 SLP084 P0018 T00061006 $





000
SAUS46 KSTO 251054
MTRBLU
METAR KBLU 251052Z AUTO 15004KT 1SM -SN BR VV005 01/M01 A2981 RMK
AO2 SLP084 P0018 T00061006 $





000
SAUS46 KSTO 251043
MTRBLU
SPECI KBLU 251041Z AUTO 17005KT 1SM -SN BR VV005 01/M01 A2981 RMK
AO2 P0014 T00061006 $





000
SAUS46 KSTO 251043
MTRBLU
SPECI KBLU 251041Z AUTO 17005KT 1SM -SN BR VV005 01/M01 A2981 RMK
AO2 P0014 T00061006 $





000
SAUS46 KSTO 250953
MTRBLU
METAR KBLU 250952Z AUTO 13004KT 3/4SM -SN BR VV004 01/M01 A2983 RMK
AO2 SLP085 P0020 T00061006 $





000
SAUS46 KSTO 250853
MTRBLU
METAR KBLU 250852Z AUTO 15007KT 1/2SM SN FG VV003 01/M01 A2985 RMK
AO2 SLP094 P0020 60046 T00061011 56021 $





000
SAUS46 KSTO 250846
MTRBLU
SPECI KBLU 250845Z AUTO 14007KT 1/2SM SN FG VV003 01/M01 A2985 RMK
AO2 P0017 T00061011 $





000
SAUS46 KSTO 250846
MTRBLU
SPECI KBLU 250845Z AUTO 14007KT 1/2SM SN FG VV003 01/M01 A2985 RMK
AO2 P0017 T00061011 $





000
SAUS46 KSTO 250839
MTRBLU
SPECI KBLU 250838Z AUTO 14006KT 1/4SM +SN FG VV003 01/M01 A2986 RMK
AO2 P0015 T00061011 $





000
SAUS46 KSTO 250809
MTRBLU
SPECI KBLU 250807Z AUTO 15009KT 1/2SM SN FG VV003 01/M01 A2987 RMK
AO2 P0005 T00061006 $





000
SAUS46 KSTO 250809
MTRBLU
SPECI KBLU 250807Z AUTO 15009KT 1/2SM SN FG VV003 01/M01 A2987 RMK
AO2 P0005 T00061006 $





000
SAUS46 KSTO 250800
MTRBLU
SPECI KBLU 250759Z AUTO 15007KT 1/4SM +SN FG VV003 01/M01 A2987 RMK
AO2 P0003 T00061006 $





000
SAUS46 KSTO 250753
MTRBLU
METAR KBLU 250752Z AUTO 14009KT 1/2SM SN FG VV003 01/M01 A2987 RMK
AO2 SLP102 P0013 T00061006 400830006 $





000
SAUS46 KSTO 250716
MTRBLU
SPECI KBLU 250715Z AUTO 14008G17KT 3/4SM -SN BR VV003 01/M01 A2988
RMK AO2 P0005 T00061006 $





000
SAUS46 KSTO 250703
MTRBLU
SPECI KBLU 250702Z AUTO 14007KT 1 1/4SM -SN BR OVC003 01/M01 A2989
RMK AO2 P0002 T00061006 $





000
SAUS46 KSTO 250653
MTRBLU
METAR KBLU 250652Z AUTO 13008KT 1/2SM -SN FG VV003 01/M01 A2989 RMK
AO2 SLP108 P0013 T00061006 $





000
SAUS46 KSTO 250609
MTRBLU
SPECI KBLU 250608Z AUTO 15008G15KT 1/2SM SN FG VV002 01/M01 A2991
RMK AO2 P0004 T00061006 $





000
SAUS46 KSTO 250609
MTRBLU
SPECI KBLU 250608Z AUTO 15008G15KT 1/2SM SN FG VV002 01/M01 A2991
RMK AO2 P0004 T00061006 $





000
SAUS46 KSTO 250553
MTRBLU
METAR KBLU 250552Z AUTO 15008KT 1/2SM SN FG 01/M01 A2992 RMK AO2
RAE14SNB14B33 SLP119 P0014 60019 T00111006 10067 20006 $





000
SAUS46 KSTO 250553
MTRBLU
METAR KBLU 250552Z AUTO 15008KT 1/2SM SN FG 01/M01 A2992 RMK AO2
RAE14SNB14B33 SLP119 P0014 60019 T00111006 10067 20006 $





000
SAUS46 KSTO 250549
MTRBLU
SPECI KBLU 250547Z AUTO 15006KT 1/2SM SN FG 01/M01 A2992 RMK AO2
RAE14SNB14B33 P0013 $





000
SAUS46 KSTO 250527
MTRBLU
SPECI KBLU 250526Z AUTO 15011G21KT 1 1/2SM -SN BR OVC003 01/M01
A2994 RMK AO2 RAE14SNB14 P0006 T00111006





000
SAUS46 KSTO 250527
MTRBLU
SPECI KBLU 250526Z AUTO 15011G21KT 1 1/2SM -SN BR OVC003 01/M01
A2994 RMK AO2 RAE14SNB14 P0006 T00111006





000
SAUS46 KSTO 250514
MTRBLU
SPECI KBLU 250513Z AUTO 15009KT 2 1/2SM RA BR BKN003 OVC008 02/00
A2994 RMK AO2 P0003 T00170000





000
SAUS46 KSTO 250454
MTRBLU
METAR KBLU 250452Z AUTO 16015G20KT 6SM -RA BR BKN007 OVC012 02/01
A2995 RMK AO2 UPB36E52 CIG 005V010 SLP128 P0003 T00220006





000
SAUS46 KSTO 250428
MTRBLU
SPECI KBLU 250427Z AUTO 16010G18KT 7SM -RA BKN008 OVC014 03/01 A2995
RMK AO2 P0003 T00280006





000
SAUS46 KSTO 250409
MTRBLU
SPECI KBLU 250408Z AUTO 17015G23KT 6SM -RA BR BKN014 OVC020 03/01
A2996 RMK AO2 P0001 T00280006





000
SAUS46 KSTO 250354
MTRBLU
METAR KBLU 250352Z AUTO 16013G20KT 7SM -RA BKN016 OVC022 03/00 A2997
RMK AO2 RAB0258 SLP136 P0002 T00330000





000
SAUS46 KSTO 250309
MTRBLU
SPECI KBLU 250307Z AUTO 18012G18KT 9SM -RA SCT021 OVC028 04/M01
A2996 RMK AO2 RAB0258 P0000 T00441006





000
SAUS46 KSTO 250309
MTRBLU
SPECI KBLU 250307Z AUTO 18012G18KT 9SM -RA SCT021 OVC028 04/M01
A2996 RMK AO2 RAB0258 P0000 T00441006





000
SAUS46 KSTO 250254
MTRBLU
METAR KBLU 250252Z AUTO 17012KT 10SM OVC030 05/M02 A2996 RMK AO2
RAB29E39 SLP131 P0000 60000 T00501022 50000





000
SAUS46 KSTO 250254
MTRBLU
METAR KBLU 250252Z AUTO 17012KT 10SM OVC030 05/M02 A2996 RMK AO2
RAB29E39 SLP131 P0000 60000 T00501022 50000





000
SAUS46 KSTO 250153
MTRBLU
METAR KBLU 250152Z AUTO 17009KT 10SM OVC046 06/M03 A2997 RMK AO2
SLP130 T00561028





000
SAUS46 KSTO 250053
MTRBLU
METAR KBLU 250052Z AUTO 19009KT 10SM FEW022 BKN037 OVC065 06/M01
A2997 RMK AO2 SLP127 T00611006





000
SAUS46 KSTO 250019
MTRBLU
SPECI KBLU 250018Z AUTO 19011G17KT 10SM FEW014 SCT022 OVC034 06/01
A2996 RMK AO2 T00610011





000
SAUS46 KSTO 242353
MTRBLU
METAR KBLU 242352Z AUTO 18010KT 10SM BKN017 BKN023 BKN036 06/02
A2996 RMK AO2 SLP125 T00610017 10083 20056 55001





000
SAUS46 KSTO 242353
MTRBLU
METAR KBLU 242352Z AUTO 18010KT 10SM BKN017 BKN023 BKN036 06/02
A2996 RMK AO2 SLP125 T00610017 10083 20056 55001





000
SAUS46 KSTO 242327
MTRBLU
SPECI KBLU 242326Z AUTO 18012G19KT 10SM FEW020 SCT028 BKN039 07/01
A2996 RMK AO2 T00670011





000
SAUS46 KSTO 242327
MTRBLU
SPECI KBLU 242326Z AUTO 18012G19KT 10SM FEW020 SCT028 BKN039 07/01
A2996 RMK AO2 T00670011





000
SAUS46 KSTO 242253
MTRBLU
METAR KBLU 242252Z AUTO 20008G16KT 10SM BKN018 BKN024 OVC032 06/01
A2997 RMK AO2 SLP124 T00610011





000
SAUS46 KSTO 242206
MTRBLU
SPECI KBLU 242205Z AUTO 20011KT 10SM FEW011 BKN030 OVC041 06/01
A2996 RMK AO2 T00610011





000
SAUS46 KSTO 242206
MTRBLU
SPECI KBLU 242205Z AUTO 20011KT 10SM FEW011 BKN030 OVC041 06/01
A2996 RMK AO2 T00610011





000
SAUS46 KSTO 242153
MTRBLU
METAR KBLU 242152Z AUTO 17015G20KT 10SM SCT007 BKN012 OVC041 07/02
A2996 RMK AO2 SLP120 T00670022





000
SAUS46 KSTO 242120
MTRBLU
SPECI KBLU 242119Z AUTO 19009G16KT 10SM BKN008 BKN018 OVC027 06/03
A2997 RMK AO2 CIG 003V013 T00610028





000
SAUS46 KSTO 242107
MTRBLU
SPECI KBLU 242106Z AUTO 17013G18KT 10SM FEW006 BKN012 OVC022 06/03
A2997 RMK AO2 T00610033





000
SAUS46 KSTO 242107
MTRBLU
SPECI KBLU 242106Z AUTO 17013G18KT 10SM FEW006 BKN012 OVC022 06/03
A2997 RMK AO2 T00610033





000
SAUS46 KSTO 242053
MTRBLU
METAR KBLU 242052Z AUTO 21007KT 10SM SCT019 BKN024 OVC065 07/01
A2996 RMK AO2 SLP122 T00720011 50003





000
SAUS46 KSTO 242036
MTRBLU
SPECI KBLU 242035Z AUTO 20009KT 10SM BKN028 BKN036 OVC065 08/M01
A2996 RMK AO2 T00781006





000
SAUS46 KSTO 241954
MTRBLU
METAR KBLU 241952Z AUTO 18009KT 160V220 10SM FEW022 SCT029 OVC065
08/M01 A2996 RMK AO2 SLP122 T00781006





000
SAUS46 KSTO 241945
MTRBLU
SPECI KBLU 241944Z AUTO 17009KT 10SM FEW020 SCT026 OVC065 07/00
A2996 RMK AO2 T00720000





000
SAUS46 KSTO 241913
MTRBLU
SPECI KBLU 241911Z AUTO 19010KT 10SM FEW013 BKN019 OVC025 07/M01
A2996 RMK AO2 T00671006





000
SAUS46 KSTO 241913
MTRBLU
SPECI KBLU 241911Z AUTO 19010KT 10SM FEW013 BKN019 OVC025 07/M01
A2996 RMK AO2 T00671006





000
SAUS46 KSTO 241854
MTRBLU
METAR KBLU 241852Z AUTO 18008KT 10SM BKN014 BKN020 OVC035 07/02
A2996 RMK AO2 SLP122 T00670022





000
SAUS46 KSTO 241812
MTRBLU
SPECI KBLU 241810Z AUTO 19009KT 10SM SCT010 BKN018 BKN029 06/02
A2996 RMK AO2 T00610022





000
SAUS46 KSTO 241812
MTRBLU
SPECI KBLU 241810Z AUTO 19009KT 10SM SCT010 BKN018 BKN029 06/02
A2996 RMK AO2 T00610022





000
SAUS46 KSTO 241753
MTRBLU
METAR KBLU 241752Z AUTO 17010KT 10SM FEW006 BKN012 BKN016 06/01
A2995 RMK AO2 SLP120 T00610011 10061 20033 51011





000
SAUS46 KSTO 241731
MTRBLU
SPECI KBLU 241729Z AUTO 16006KT 10SM SCT006 BKN011 BKN018 05/02
A2994 RMK AO2 T00500022





000
SAUS46 KSTO 241731
MTRBLU
SPECI KBLU 241729Z AUTO 16006KT 10SM SCT006 BKN011 BKN018 05/02
A2994 RMK AO2 T00500022





000
SAUS46 KSTO 241700
MTRBLU
SPECI KBLU 241659Z AUTO 24005KT 10SM BKN008 BKN013 OVC030 06/02
A2994 RMK AO2 CIG 005V011 T00560022





000
SAUS46 KSTO 241700
MTRBLU
SPECI KBLU 241659Z AUTO 24005KT 10SM BKN008 BKN013 OVC030 06/02
A2994 RMK AO2 CIG 005V011 T00560022





000
SAUS46 KSTO 241654
MTRBLU
METAR KBLU 241652Z AUTO 22003KT 10SM FEW008 BKN015 OVC020 05/02
A2994 RMK AO2 SLP109 T00500022





000
SAUS46 KSTO 241654
MTRBLU
METAR KBLU 241652Z AUTO 22003KT 10SM FEW008 BKN015 OVC020 05/02
A2994 RMK AO2 SLP109 T00500022





000
SAUS46 KSTO 241637
MTRBLU
SPECI KBLU 241636Z AUTO 15005KT 10SM FEW006 BKN013 OVC021 05/02
A2993 RMK AO2 T00500022





000
SAUS46 KSTO 241637
MTRBLU
SPECI KBLU 241636Z AUTO 15005KT 10SM FEW006 BKN013 OVC021 05/02
A2993 RMK AO2 T00500022





000
SAUS46 KSTO 241604
MTRBLU
SPECI KBLU 241603Z AUTO 28003KT 10SM BKN016 OVC020 04/01 A2993 RMK
AO2 T00440011





000
SAUS46 KSTO 241553
MTRBLU
METAR KBLU 241552Z AUTO 00000KT 10SM FEW006 BKN014 OVC026 04/02
A2992 RMK AO2 SLP106 T00390017





000
SAUS46 KSTO 241509
MTRBLU
SPECI KBLU 241507Z AUTO 27004KT 10SM SCT003 OVC011 04/03 A2991 RMK
AO2 T00390028





000
SAUS46 KSTO 241501
MTRBLU
SPECI KBLU 241459Z AUTO 26003KT 6SM BR BKN003 OVC010 04/03 A2991 RMK
AO2 T00440028





000
SAUS46 KSTO 241454
MTRBLU
METAR KBLU 241452Z AUTO 28003KT 2 1/2SM BR BKN002 OVC009 04/03 A2991
RMK AO2 VIS 3/4V5 SLP099 T00390028 53010





000
SAUS46 KSTO 241449
MTRBLU
SPECI KBLU 241448Z AUTO 30004KT 1SM BR BKN002 OVC009 04/03 A2991 RMK
AO2





000
SAUS46 KSTO 241449
MTRBLU
SPECI KBLU 241448Z AUTO 30004KT 1SM BR BKN002 OVC009 04/03 A2991 RMK
AO2





000
SAUS46 KSTO 241420
MTRBLU
SPECI KBLU 241419Z AUTO 24003KT 1/4SM FG BKN004 BKN012 OVC017 04/03
A2990 RMK AO2 T00390028





000
SAUS46 KSTO 241408
MTRBLU
SPECI KBLU 241407Z AUTO 27005KT 1/4SM FG SCT006 BKN012 OVC029 04/02
A2990 RMK AO2 T00390022





000
SAUS46 KSTO 241408
MTRBLU
SPECI KBLU 241407Z AUTO 27005KT 1/4SM FG SCT006 BKN012 OVC029 04/02
A2990 RMK AO2 T00390022





000
SAUS46 KSTO 241404
MTRBLU
SPECI KBLU 241403Z AUTO VRB03KT 1SM BR SCT010 BKN017 OVC029 04/02
A2989 RMK AO2 T00390022





000
SAUS46 KSTO 241404
MTRBLU
SPECI KBLU 241403Z AUTO VRB03KT 1SM BR SCT010 BKN017 OVC029 04/02
A2989 RMK AO2 T00390022





000
SAUS46 KSTO 241353
MTRBLU
METAR KBLU 241352Z AUTO 00000KT 10SM SCT012 BKN029 BKN035 04/02
A2989 RMK AO2 SLP088 T00390017





000
SAUS46 KSTO 241350
MTRBLU
SPECI KBLU 241349Z AUTO 00000KT 10SM SCT012 BKN029 BKN035 04/02
A2988 RMK AO2





000
SAUS46 KSTO 241322
MTRBLU
SPECI KBLU 241321Z AUTO 00000KT 10SM FEW015 SCT021 BKN048 04/01
A2988 RMK AO2 T00390011





000
SAUS46 KSTO 241253
MTRBLU
METAR KBLU 241252Z AUTO 28003KT 10SM OVC015 04/02 A2988 RMK AO2
SLP080 T00440017





000
SAUS46 KSTO 241240
MTRBLU
SPECI KBLU 241239Z AUTO 29004KT 10SM OVC015 04/02 A2987 RMK AO2
T00440017





000
SAUS46 KSTO 241240
MTRBLU
SPECI KBLU 241239Z AUTO 29004KT 10SM OVC015 04/02 A2987 RMK AO2
T00440017





000
SAUS46 KSTO 241153
MTRBLU
METAR KBLU 241152Z AUTO 30005KT 10SM OVC014 05/02 A2987 RMK AO2
SLP073 60079 70100 T00500017 10061 20033 53001





000
SAUS46 KSTO 241153
MTRBLU
METAR KBLU 241152Z AUTO 30005KT 10SM OVC014 05/02 A2987 RMK AO2
SLP073 60079 70100 T00500017 10061 20033 53001





000
SAUS46 KSTO 241117
MTRBLU
SPECI KBLU 241116Z AUTO 29008KT 10SM SCT004 SCT011 OVC016 05/02
A2987 RMK AO2 T00500022





000
SAUS46 KSTO 241054
MTRBLU
METAR KBLU 241052Z AUTO 18003KT 10SM OVC004 06/03 A2986 RMK AO2 CIG
003V007 SLP070 T00560033





000
SAUS46 KSTO 240954
MTRBLU
METAR KBLU 240952Z AUTO 18004KT 10SM BKN008 OVC015 06/03 A2986 RMK
AO2 LTG DSNT SE CIG 006V010 SLP067 T00610028





000
SAUS46 KSTO 240942
MTRBLU
SPECI KBLU 240941Z AUTO 20003KT 10SM FEW008 OVC013 06/03 A2986 RMK
AO2 T00610028





000
SAUS46 KSTO 240920
MTRBLU
SPECI KBLU 240918Z AUTO 00000KT 10SM BKN012 OVC022 05/03 A2987 RMK
AO2 LTG DSNT SE T00500028





000
SAUS46 KSTO 240854
MTRBLU
METAR KBLU 240852Z AUTO 07003KT 10SM OVC027 05/02 A2987 RMK AO2 LTG
DSNT SE AND S RAE0756 SLP074 P0000 60079 T00500022 58007





000
SAUS46 KSTO 240835
MTRBLU
SPECI KBLU 240834Z AUTO 05005KT 10SM OVC029 05/02 A2987 RMK AO2 LTG
DSNT SE AND S RAE0756 P0000 T00500022





000
SAUS46 KSTO 240753
MTRBLU
METAR KBLU 240752Z AUTO 08004KT 7SM -RA FEW023 OVC040 04/03 A2989
RMK AO2 LTG DSNT SE AND S RAE00B03 TSB0655E10 SLP081 P0018 T00390028
401560033





000
SAUS46 KSTO 240753
MTRBLU
METAR KBLU 240752Z AUTO 08004KT 7SM -RA FEW023 OVC040 04/03 A2989
RMK AO2 LTG DSNT SE AND S RAE00B03 TSB0655E10 SLP081 P0018 T00390028
401560033





000
SAUS46 KSTO 240746
MTRBLU
SPECI KBLU 240745Z AUTO 08005KT 3SM -RA BR FEW023 OVC033 04/03 A2989
RMK AO2 LTG DSNT SE AND S RAE00B03 TSB0655E10 P0018 T00390028





000
SAUS46 KSTO 240742
MTRBLU
SPECI KBLU 240741Z AUTO 08005KT 2 1/2SM -RA BR FEW023 OVC028 04/03
A2990 RMK AO2 VIS 1 1/2V5 LTG DSNT E AND SE RAE00B03 TSB0655E10
P0017 T00390028





000
SAUS46 KSTO 240742
MTRBLU
SPECI KBLU 240741Z AUTO 08005KT 2 1/2SM -RA BR FEW023 OVC028 04/03
A2990 RMK AO2 VIS 1 1/2V5 LTG DSNT E AND SE RAE00B03 TSB0655E10
P0017 T00390028





000
SAUS46 KSTO 240719
MTRBLU
SPECI KBLU 240718Z AUTO VRB03KT 2 1/2SM VCTS +RA FEW013 SCT019
OVC025 05/02 A2991 RMK AO2 LTG DSNT SE AND S RAE00B03 TSB0655E10
P0006 T00500022





000
SAUS46 KSTO 240713
MTRBLU
SPECI KBLU 240712Z AUTO 33007KT 270V020 4SM +RA FEW013 BKN024 OVC029
05/02 A2991 RMK AO2 LTG DSNT SE AND S RAE00B03 TSB0655E10 P0003
T00500022





000
SAUS46 KSTO 240713
MTRBLU
SPECI KBLU 240712Z AUTO 33007KT 270V020 4SM +RA FEW013 BKN024 OVC029
05/02 A2991 RMK AO2 LTG DSNT SE AND S RAE00B03 TSB0655E10 P0003
T00500022





000
SAUS46 KSTO 240701
MTRBLU
SPECI KBLU 240701Z AUTO 35006KT 10SM TS OVC022 06/03 A2990 RMK AO2
LTG DSNT SE-SW RAE00 TSB0655 P0000 T00560028





000
SAUS46 KSTO 240655 COR
MTRBLU
METAR KBLU 240652Z AUTO 04007KT 360V070 7SM VCTS -RA FEW009 OVC021
05/03 A2989 RMK AO2 LTG DSNT SE-SW TSE07E40 SLP083 P0061 T00500028





000
SAUS46 KSTO 240655 COR
MTRBLU
METAR KBLU 240652Z AUTO 04007KT 360V070 7SM VCTS -RA FEW009 OVC021
05/03 A2989 RMK AO2 LTG DSNT SE-SW TSE07E40 SLP083 P0061 T00500028





000
SAUS46 KSTO 240654 COR
MTRBLU
METAR KBLU 240652Z AUTO 04007KT 360V070 7SM VCTS -RA FEW009 OVC021
05/03 A2989 RMK AO2 LTG DSNT SE-SW TSE07E40 SLP083 P0061 T00500028





000
SAUS46 KSTO 240654 COR
MTRBLU
METAR KBLU 240652Z AUTO 04007KT 360V070 7SM VCTS -RA FEW009 OVC021
05/03 A2989 RMK AO2 LTG DSNT SE-SW TSE07E40 SLP083 P0061 T00500028





000
SAUS46 KSTO 240623
MTRBLU
SPECI KBLU 240622Z AUTO 03007KT 6SM -TSRA BR FEW006 BKN025 OVC035
04/02 A2990 RMK AO2 LTG DSNT ALQDS TSE07 P0054 T00390022





000
SAUS46 KSTO 240623
MTRBLU
SPECI KBLU 240622Z AUTO 03007KT 6SM -TSRA BR FEW006 BKN025 OVC035
04/02 A2990 RMK AO2 LTG DSNT ALQDS TSE07 P0054 T00390022





000
SAUS46 KSTO 240616
MTRBLU
SPECI KBLU 240615Z AUTO 04007G16KT 3SM +TSRA BR FEW006 BKN014 OVC033
03/02 A2990 RMK AO2 LTG DSNT ALQDS TSE07 P0051 T00330017





000
SAUS46 KSTO 240616
MTRBLU
SPECI KBLU 240615Z AUTO 04007G16KT 3SM +TSRA BR FEW006 BKN014 OVC033
03/02 A2990 RMK AO2 LTG DSNT ALQDS TSE07 P0051 T00330017





000
SAUS46 KSTO 240607
MTRBLU
SPECI KBLU 240606Z AUTO 34008G15KT 1 3/4SM +TSRA BR SCT006 BKN014
OVC023 04/02 A2992 RMK AO2 LTG DSNT ALQDS P0024 T00390022





000
SAUS46 KSTO 240553
MTRBLU
METAR KBLU 240552Z AUTO 35011G23KT 2 1/2SM +TSRA BR BKN006 BKN011
OVC017 04/02 A2990 RMK AO2 LTG DSNT ALQDS RAB11 TSB26 SLP085 P0017
60021 T00440022 10144 20044 53001





000
SAUS46 KSTO 240553
MTRBLU
METAR KBLU 240552Z AUTO 35011G23KT 2 1/2SM +TSRA BR BKN006 BKN011
OVC017 04/02 A2990 RMK AO2 LTG DSNT ALQDS RAB11 TSB26 SLP085 P0017
60021 T00440022 10144 20044 53001





000
SAUS46 KSTO 240551
MTRBLU
SPECI KBLU 240550Z AUTO 34012G23KT 2 1/2SM +TSRA BR FEW002 BKN006
OVC017 05/03 A2990 RMK AO2 VIS 1 1/4V5 LTG DSNT ALQDS RAB11 TSB26
P0013





000
SAUS46 KSTO 240551
MTRBLU
SPECI KBLU 240550Z AUTO 34012G23KT 2 1/2SM +TSRA BR FEW002 BKN006
OVC017 05/03 A2990 RMK AO2 VIS 1 1/4V5 LTG DSNT ALQDS RAB11 TSB26
P0013





000
SAUS46 KSTO 240546
MTRBLU
SPECI KBLU 240545Z AUTO 30010G15KT 6SM -TSRA BR BKN004 OVC013 07/05
A2991 RMK AO2 LTG DSNT ALQDS RAB11 TSB26 P0013 T00720050





000
SAUS46 KSTO 240546
MTRBLU
SPECI KBLU 240545Z AUTO 30010G15KT 6SM -TSRA BR BKN004 OVC013 07/05
A2991 RMK AO2 LTG DSNT ALQDS RAB11 TSB26 P0013 T00720050





000
SAUS46 KSTO 240537
MTRBLU
SPECI KBLU 240536Z AUTO 22004KT 2SM -TSRA BR BKN002 BKN006 OVC026
07/06 A2989 RMK AO2 LTG DSNT ALQDS RAB11 TSB26 P0013 T00720056





000
SAUS46 KSTO 240537
MTRBLU
SPECI KBLU 240536Z AUTO 22004KT 2SM -TSRA BR BKN002 BKN006 OVC026
07/06 A2989 RMK AO2 LTG DSNT ALQDS RAB11 TSB26 P0013 T00720056





000
SAUS46 KSTO 240531
MTRBLU
SPECI KBLU 240530Z AUTO 21010KT 160V240 1SM -TSRA BR VV002 08/07
A2989 RMK AO2 LTG DSNT ALQDS RAB11 TSB26 P0001 T00830072





000
SAUS46 KSTO 240514
MTRBLU
SPECI KBLU 240513Z AUTO 18010KT 3/4SM VCTS -RA BR VV002 09/07 A2989
RMK AO2 LTG DSNT W-N RAB11 P0000 T00890072





000
SAUS46 KSTO 240514
MTRBLU
SPECI KBLU 240513Z AUTO 18010KT 3/4SM VCTS -RA BR VV002 09/07 A2989
RMK AO2 LTG DSNT W-N RAB11 P0000 T00890072





000
SAUS46 KSTO 240505
MTRBLU
SPECI KBLU 240503Z AUTO 18006KT 1 1/4SM VCTS BR OVC003 09/07 A2989
RMK AO2 LTG DSNT N AND SE AND NW T00890072





000
SAUS46 KSTO 240505
MTRBLU
SPECI KBLU 240503Z AUTO 18006KT 1 1/4SM VCTS BR OVC003 09/07 A2989
RMK AO2 LTG DSNT N AND SE AND NW T00890072





000
SAUS46 KSTO 240500
MTRBLU
SPECI KBLU 240459Z AUTO 18006KT 2SM VCTS BR OVC003 09/07 A2989 RMK
AO2 LTG DSNT N AND SE AND NW T00890072





000
SAUS46 KSTO 240500
MTRBLU
SPECI KBLU 240459Z AUTO 18006KT 2SM VCTS BR OVC003 09/07 A2989 RMK
AO2 LTG DSNT N AND SE AND NW T00890072





000
SAUS46 KSTO 240453
MTRBLU
METAR KBLU 240452Z AUTO 18006KT 3SM VCTS BR OVC003 09/07 A2989 RMK
AO2 LTG DSNT N AND SE AND NW CIG 002V006 SLP075 T00890072





000
SAUS46 KSTO 240432
MTRBLU
SPECI KBLU 240431Z AUTO 17005KT 6SM BR BKN005 BKN010 OVC028 09/07
A2990 RMK AO2 LTG DSNT W-NE T00890072





000
SAUS46 KSTO 240432
MTRBLU
SPECI KBLU 240431Z AUTO 17005KT 6SM BR BKN005 BKN010 OVC028 09/07
A2990 RMK AO2 LTG DSNT W-NE T00890072





000
SAUS46 KSTO 240417
MTRBLU
SPECI KBLU 240416Z AUTO 17006KT 8SM FEW008 BKN015 OVC037 09/07 A2990
RMK AO2 LTG DSNT E AND W AND NW T00940072





000
SAUS46 KSTO 240417
MTRBLU
SPECI KBLU 240416Z AUTO 17006KT 8SM FEW008 BKN015 OVC037 09/07 A2990
RMK AO2 LTG DSNT E AND W AND NW T00940072





000
SAUS46 KSTO 240405
MTRBLU
SPECI KBLU 240403Z AUTO 17007KT 7SM SCT010 BKN014 OVC021 09/07 A2989
RMK AO2 LTG DSNT NE-SE T00940072





000
SAUS46 KSTO 240405
MTRBLU
SPECI KBLU 240403Z AUTO 17007KT 7SM SCT010 BKN014 OVC021 09/07 A2989
RMK AO2 LTG DSNT NE-SE T00940072





000
SAUS46 KSTO 240354
MTRBLU
METAR KBLU 240352Z AUTO 17004KT 9SM VCTS OVC012 09/07 A2989 RMK AO2
LTG DSNT NE-SE RAE0259 SLP074 P0000 T00940072





000
SAUS46 KSTO 240354
MTRBLU
METAR KBLU 240352Z AUTO 17004KT 9SM VCTS OVC012 09/07 A2989 RMK AO2
LTG DSNT NE-SE RAE0259 SLP074 P0000 T00940072





000
SAUS46 KSTO 240332
MTRBLU
SPECI KBLU 240331Z AUTO 20005KT 8SM VCTS BKN010 OVC020 09/08 A2989
RMK AO2 RAE0259 P0000 T00940078





000
SAUS46 KSTO 240325
MTRBLU
SPECI KBLU 240323Z AUTO 20006KT 8SM OVC010 10/08 A2989 RMK AO2 LTG
DSNT S RAE0259 P0000 T01000078





000
SAUS46 KSTO 240301
MTRBLU
SPECI KBLU 240259Z AUTO 20004KT 10SM VCTS BKN012 BKN019 OVC042 10/07
A2990 RMK AO2 LTG DSNT SW RAE59 P0000 T01000067





000
SAUS46 KSTO 240253
MTRBLU
METAR KBLU 240252Z AUTO 00000KT 4SM -RA BKN014 BKN026 OVC044 10/06
A2990 RMK AO2 LTG DSNT SW RAB43 SLP081 P0004 60004 T01000056 56002





000
SAUS46 KSTO 240251
MTRBLU
SPECI KBLU 240250Z AUTO 00000KT 4SM RA BKN014 BKN022 OVC044 10/06
A2990 RMK AO2 LTG DSNT SW RAB43 P0004





000
SAUS46 KSTO 240212
MTRBLU
SPECI KBLU 240210Z AUTO 22005KT 10SM SCT016 BKN028 BKN036 11/06
A2990 RMK AO2 T01110061





000
SAUS46 KSTO 240153
MTRBLU
METAR KBLU 240152Z AUTO VRB06KT 10SM SCT029 BKN038 BKN049 11/06
A2990 RMK AO2 SLP084 T01110061





000
SAUS46 KSTO 240153
MTRBLU
METAR KBLU 240152Z AUTO VRB06KT 10SM SCT029 BKN038 BKN049 11/06
A2990 RMK AO2 SLP084 T01110061





000
SAUS46 KSTO 240053
MTRBLU
METAR KBLU 240052Z AUTO 24007KT 10SM FEW035 13/05 A2990 RMK AO2
SLP082 T01280050





000
SAUS46 KSTO 240053
MTRBLU
METAR KBLU 240052Z AUTO 24007KT 10SM FEW035 13/05 A2990 RMK AO2
SLP082 T01280050





000
SAUS46 KSTO 232353
MTRBLU
METAR KBLU 232352Z AUTO 28009G15KT 250V310 10SM FEW037 14/05 A2990
RMK AO2 LTG DSNT N AND NE SLP072 T01390050 10156 20133 55004





000
SAUS46 KSTO 232303
MTRBLU
SPECI KBLU 232302Z AUTO 23009G16KT 200V270 10SM VCTS FEW027 SCT046
SCT060 14/06 A2990 RMK AO2 LTG DSNT N T01440061





000
SAUS46 KSTO 232303
MTRBLU
SPECI KBLU 232302Z AUTO 23009G16KT 200V270 10SM VCTS FEW027 SCT046
SCT060 14/06 A2990 RMK AO2 LTG DSNT N T01440061





000
SAUS46 KSTO 232253
MTRBLU
METAR KBLU 232252Z AUTO 26010G21KT 10SM FEW027 SCT038 BKN048 14/06
A2990 RMK AO2 LTG DSNT N SLP075 T01390056





000
SAUS46 KSTO 232253
MTRBLU
METAR KBLU 232252Z AUTO 26010G21KT 10SM FEW027 SCT038 BKN048 14/06
A2990 RMK AO2 LTG DSNT N SLP075 T01390056





000
SAUS46 KSTO 232153
MTRBLU
METAR KBLU 232152Z AUTO 23008G15KT 10SM FEW029 SCT039 SCT047 15/05
A2991 RMK AO2 SLP071 T01500050





000
SAUS46 KSTO 232053
MTRBLU
METAR KBLU 232052Z AUTO 21009G16KT 10SM FEW049 14/04 A2992 RMK AO2
SLP077 T01440039 58006





000
SAUS46 KSTO 232053
MTRBLU
METAR KBLU 232052Z AUTO 21009G16KT 10SM FEW049 14/04 A2992 RMK AO2
SLP077 T01440039 58006





000
SAUS46 KSTO 231954
MTRBLU
METAR KBLU 231952Z AUTO 27007G16KT 230V300 10SM CLR 15/03 A2993 RMK
AO2 SLP082 T01500028





000
SAUS46 KSTO 231954
MTRBLU
METAR KBLU 231952Z AUTO 27007G16KT 230V300 10SM CLR 15/03 A2993 RMK
AO2 SLP082 T01500028





000
SAUS46 KSTO 231853
MTRBLU
METAR KBLU 231852Z AUTO 28008KT 10SM CLR 14/02 A2994 RMK AO2 SLP091
T01390022





000
SAUS46 KSTO 231853
MTRBLU
METAR KBLU 231852Z AUTO 28008KT 10SM CLR 14/02 A2994 RMK AO2 SLP091
T01390022





000
SAUS46 KSTO 231753
MTRBLU
METAR KBLU 231752Z AUTO 00000KT 10SM CLR 14/00 A2994 RMK AO2 SLP088
T01440000 10144 20083 50004





000
SAUS46 KSTO 231753
MTRBLU
METAR KBLU 231752Z AUTO 00000KT 10SM CLR 14/00 A2994 RMK AO2 SLP088
T01440000 10144 20083 50004





000
SAUS46 KSTO 231653
MTRBLU
METAR KBLU 231652Z AUTO 21005KT 10SM CLR 13/01 A2994 RMK AO2 SLP091
T01280006





000
SAUS46 KSTO 231653
MTRBLU
METAR KBLU 231652Z AUTO 21005KT 10SM CLR 13/01 A2994 RMK AO2 SLP091
T01280006





000
SAUS46 KSTO 231553
MTRBLU
METAR KBLU 231552Z AUTO 23004KT 10SM CLR 12/02 A2994 RMK AO2 SLP095
T01220017





000
SAUS46 KSTO 231453
MTRBLU
METAR KBLU 231452Z AUTO VRB05KT 10SM CLR 10/01 A2992 RMK AO2 SLP094
T01000011 53003





000
SAUS46 KSTO 231354
MTRBLU
METAR KBLU 231352Z AUTO 07004KT 10SM CLR 09/00 A2992 RMK AO2 SLP096
T00890000





000
SAUS46 KSTO 231354
MTRBLU
METAR KBLU 231352Z AUTO 07004KT 10SM CLR 09/00 A2992 RMK AO2 SLP096
T00890000





000
SAUS46 KSTO 231254
MTRBLU
METAR KBLU 231252Z AUTO 05004KT 10SM CLR 08/00 A2991 RMK AO2 SLP094
T00830000





000
SAUS46 KSTO 231254
MTRBLU
METAR KBLU 231252Z AUTO 05004KT 10SM CLR 08/00 A2991 RMK AO2 SLP094
T00830000





000
SAUS46 KSTO 231153
MTRBLU
METAR KBLU 231152Z AUTO VRB03KT 10SM CLR 10/M01 A2991 RMK AO2 SLP082
70015 T01001006 10106 20078 58005





000
SAUS46 KSTO 231153
MTRBLU
METAR KBLU 231152Z AUTO VRB03KT 10SM CLR 10/M01 A2991 RMK AO2 SLP082
70015 T01001006 10106 20078 58005





000
SAUS46 KSTO 231054
MTRBLU
METAR KBLU 231052Z AUTO 08004KT 10SM CLR 09/00 A2992 RMK AO2 SLP085
T00940000





000
SAUS46 KSTO 231054
MTRBLU
METAR KBLU 231052Z AUTO 08004KT 10SM CLR 09/00 A2992 RMK AO2 SLP085
T00940000





000
SAUS46 KSTO 230953
MTRBLU
METAR KBLU 230952Z AUTO 00000KT 10SM CLR 10/01 A2993 RMK AO2 SLP086
T01000006





000
SAUS46 KSTO 230853
MTRBLU
METAR KBLU 230852Z AUTO 03003KT 10SM CLR 10/01 A2993 RMK AO2 SLP089
T01000006 58006





000
SAUS46 KSTO 230853
MTRBLU
METAR KBLU 230852Z AUTO 03003KT 10SM CLR 10/01 A2993 RMK AO2 SLP089
T01000006 58006





000
SAUS46 KSTO 230753
MTRBLU
METAR KBLU 230752Z AUTO 06004KT 10SM CLR 09/02 A2995 RMK AO2 SLP097
T00890022 401390072





000
SAUS46 KSTO 230753
MTRBLU
METAR KBLU 230752Z AUTO 06004KT 10SM CLR 09/02 A2995 RMK AO2 SLP097
T00890022 401390072





000
SAUS46 KSTO 230653
MTRBLU
METAR KBLU 230652Z AUTO 04003KT 10SM FEW070 08/04 A2995 RMK AO2
SLP096 T00830044





000
SAUS46 KSTO 230653
MTRBLU
METAR KBLU 230652Z AUTO 04003KT 10SM FEW070 08/04 A2995 RMK AO2
SLP096 T00830044





000
SAUS46 KSTO 230553
MTRBLU
METAR KBLU 230552Z AUTO 36004KT 10SM CLR 08/05 A2996 RMK AO2 SLP096
60015 T00830050 10122 20072 50004





000
SAUS46 KSTO 230553
MTRBLU
METAR KBLU 230552Z AUTO 36004KT 10SM CLR 08/05 A2996 RMK AO2 SLP096
60015 T00830050 10122 20072 50004





000
SAUS46 KSTO 230505
MTRBLU
SPECI KBLU 230504Z AUTO 35003KT 10SM FEW007 FEW016 08/05 A2996 RMK
AO2 T00830050





000
SAUS46 KSTO 230453
MTRBLU
METAR KBLU 230452Z AUTO 35004KT 10SM SCT009 BKN016 09/06 A2996 RMK
AO2 SLP103 T00890056





000
SAUS46 KSTO 230440
MTRBLU
SPECI KBLU 230439Z AUTO 00000KT 10SM SCT009 BKN015 09/06 A2996 RMK
AO2 T00890056





000
SAUS46 KSTO 230431
MTRBLU
SPECI KBLU 230429Z AUTO 04003KT 10SM BKN009 BKN017 08/06 A2996 RMK
AO2 CIG 007V012 T00830056





000
SAUS46 KSTO 230419
MTRBLU
SPECI KBLU 230418Z AUTO 00000KT 10SM SCT009 BKN019 08/05 A2996 RMK
AO2 T00780050





000
SAUS46 KSTO 230419
MTRBLU
SPECI KBLU 230418Z AUTO 00000KT 10SM SCT009 BKN019 08/05 A2996 RMK
AO2 T00780050





000
SAUS46 KSTO 230354
MTRBLU
METAR KBLU 230352Z AUTO 05003KT 10SM BKN008 08/06 A2996 RMK AO2 CIG
006V011 SLP105 T00780056





000
SAUS46 KSTO 230319
MTRBLU
SPECI KBLU 230317Z AUTO 33003KT 10SM BKN006 09/04 A2995 RMK AO2 CIG
005V010 T00890044





000
SAUS46 KSTO 230310
MTRBLU
SPECI KBLU 230309Z AUTO 30004KT 10SM SCT006 09/04 A2995 RMK AO2
T00890039





000
SAUS46 KSTO 230310
MTRBLU
SPECI KBLU 230309Z AUTO 30004KT 10SM SCT006 09/04 A2995 RMK AO2
T00890039





000
SAUS46 KSTO 230253
MTRBLU
METAR KBLU 230252Z AUTO 32004KT 10SM FEW110 09/03 A2994 RMK AO2
SLP095 60015 T00890033 55003





000
SAUS46 KSTO 230253
MTRBLU
METAR KBLU 230252Z AUTO 32004KT 10SM FEW110 09/03 A2994 RMK AO2
SLP095 60015 T00890033 55003





000
SAUS46 KSTO 230153
MTRBLU
METAR KBLU 230152Z AUTO VRB04KT 10SM SCT047 BKN075 OVC110 08/03
A2992 RMK AO2 PK WND 36032/0114 LTG DSNT SE AND S RAE48 TSE20 SLP096
P0004 T00780033





000
SAUS46 KSTO 230150
MTRBLU
SPECI KBLU 230149Z AUTO VRB06G20KT 10SM BKN045 BKN070 OVC110 08/03
A2992 RMK AO2 PK WND 36032/0114 LTG DSNT SE AND S RAE48 TSE20 PRESFR
P0004





000
SAUS46 KSTO 230127
MTRBLU
SPECI KBLU 230126Z AUTO 03010G25KT 4SM VCTS -RA BKN041 BKN085 OVC100
08/03 A2996 RMK AO2 PK WND 36032/0114 LTG DSNT SE AND S TSE20 P0002
T00830028





000
SAUS46 KSTO 230053
MTRBLU
METAR KBLU 230052Z AUTO VRB06KT 4SM -TSRA FEW013 SCT025 OVC055 08/04
A2995 RMK AO2 LTG DSNT N AND S RAB25 TSB38E47 SLP106 P0011 T00780044





000
SAUS46 KSTO 230045
MTRBLU
SPECI KBLU 230044Z AUTO VRB05KT 6SM -TSRA FEW012 BKN025 OVC060 10/05
A2996 RMK AO2 LTG DSNT SE AND S RAB25 TSB38 P0002 T01000050





000
SAUS46 KSTO 230045
MTRBLU
SPECI KBLU 230044Z AUTO VRB05KT 6SM -TSRA FEW012 BKN025 OVC060 10/05
A2996 RMK AO2 LTG DSNT SE AND S RAB25 TSB38 P0002 T01000050





000
SAUS46 KSTO 230026
MTRBLU
SPECI KBLU 230024Z AUTO VRB03KT 10SM VCTS FEW017 BKN026 OVC039 12/07
A2995 RMK AO2 LTG DSNT NE AND SE AND NW T01170072





000
SAUS46 KSTO 230026
MTRBLU
SPECI KBLU 230024Z AUTO VRB03KT 10SM VCTS FEW017 BKN026 OVC039 12/07
A2995 RMK AO2 LTG DSNT NE AND SE AND NW T01170072





000
SAUS46 KSTO 230017
MTRBLU
SPECI KBLU 230016Z AUTO 22007KT 10SM SCT017 BKN026 OVC046 12/07
A2995 RMK AO2 LTG DSNT N AND NE T01170072





000
SAUS46 KSTO 230017
MTRBLU
SPECI KBLU 230016Z AUTO 22007KT 10SM SCT017 BKN026 OVC046 12/07
A2995 RMK AO2 LTG DSNT N AND NE T01170072





000
SAUS46 KSTO 230004
MTRBLU
SPECI KBLU 230003Z AUTO 22006KT 10SM VCTS FEW015 BKN026 12/07 A2996
RMK AO2 LTG DSNT N AND NW T01170072





000
SAUS46 KSTO 222353
MTRBLU
METAR KBLU 222352Z AUTO 25005KT 10SM VCTS SCT017 12/07 A2996 RMK AO2
LTG DSNT N AND NW SLP100 T01220072 10139 20117 55000





000
SAUS46 KSTO 222353
MTRBLU
METAR KBLU 222352Z AUTO 25005KT 10SM VCTS SCT017 12/07 A2996 RMK AO2
LTG DSNT N AND NW SLP100 T01220072 10139 20117 55000





    US Dept of Commerce
    National Oceanic and Atmospheric Administration
    National Weather Service
    1325 East West Highway
    Silver Spring, MD 20910
    Page Author: NWS Internet Services Team
Disclaimer
Information Quality
Credits
Glossary
Privacy Policy
Freedom of Information Act (FOIA)
About Us
Career Opportunities